createdAt,value
2022-12-19T00:01:35.404Z,6.88
2022-12-19T00:04:07.804Z,6.60
2022-12-19T00:06:43.402Z,5.40
2022-12-19T00:09:12.739Z,4.93
2022-12-19T00:11:40.907Z,6.03
2022-12-19T00:14:10.900Z,4.85
2022-12-19T00:16:38.690Z,4.93
2022-12-19T00:19:05.552Z,4.65
2022-12-19T00:21:35.160Z,4.65
2022-12-19T00:24:10.498Z,5.63
2022-12-19T00:26:47.833Z,5.15
2022-12-19T00:29:14.981Z,4.65
2022-12-19T00:31:43.148Z,5.30
2022-12-19T00:34:10.218Z,5.47
2022-12-19T00:36:37.030Z,4.88
2022-12-19T00:39:08.462Z,4.38
2022-12-19T00:41:41.307Z,6.10
2022-12-19T00:44:13.821Z,6.15
2022-12-19T00:46:40.785Z,5.50
2022-12-19T00:49:07.939Z,7.45
2022-12-19T00:51:37.276Z,7.07
2022-12-19T00:54:07.296Z,6.60
2022-12-19T00:56:37.930Z,5.80
2022-12-19T00:59:06.464Z,6.57
2022-12-19T01:01:37.714Z,6.85
2022-12-19T01:06:54.646Z,8.27
2022-12-19T01:09:27.941Z,8.85
2022-12-19T01:12:13.210Z,8.85
2022-12-19T01:14:40.016Z,8.90
2022-12-19T01:17:06.830Z,7.30
2022-12-19T01:19:37.753Z,7.25
2022-12-19T01:22:07.206Z,6.10
2022-12-19T01:24:34.380Z,5.78
2022-12-19T01:27:01.175Z,5.72
2022-12-19T01:29:27.938Z,5.10
2022-12-19T01:31:54.917Z,4.72
2022-12-19T01:34:21.709Z,4.47
2022-12-19T01:36:48.487Z,5.00
2022-12-19T01:39:15.270Z,5.05
2022-12-19T01:41:42.120Z,5.05
2022-12-19T01:44:09.404Z,4.75
2022-12-19T01:46:53.071Z,4.60
2022-12-19T01:49:32.198Z,5.20
2022-12-19T01:52:13.504Z,5.28
2022-12-19T01:54:50.664Z,4.38
2022-12-19T01:57:19.932Z,4.07
2022-12-19T01:59:53.349Z,4.35
2022-12-19T02:03:08.005Z,4.45
2022-12-19T02:05:39.532Z,5.13
2022-12-19T02:08:07.500Z,4.50
2022-12-19T02:10:34.641Z,4.65
2022-12-19T02:13:01.600Z,4.93
2022-12-19T02:15:33.793Z,5.32
2022-12-19T02:18:21.513Z,4.82
2022-12-19T02:21:13.841Z,4.50
2022-12-19T02:24:40.674Z,4.57
2022-12-19T02:27:22.436Z,4.57
2022-12-19T02:30:07.334Z,4.90
2022-12-19T02:33:03.022Z,5.05
2022-12-19T02:35:51.968Z,5.65
2022-12-19T02:38:52.037Z,5.65
2022-12-19T02:41:43.433Z,5.55
2022-12-19T02:44:20.163Z,5.50
2022-12-19T02:46:49.160Z,4.75
2022-12-19T02:49:21.367Z,4.22
2022-12-19T02:51:54.100Z,5.50
2022-12-19T02:54:21.719Z,5.20
2022-12-19T02:57:36.155Z,6.90
2022-12-19T03:00:16.428Z,8.70
2022-12-19T03:03:06.317Z,9.05
2022-12-19T03:05:44.382Z,8.65
2022-12-19T03:08:42.513Z,9.95
2022-12-19T03:11:13.655Z,9.30
2022-12-19T03:13:48.697Z,9.60
2022-12-19T03:18:44.107Z,8.60
2022-12-19T03:21:33.814Z,7.80
2022-12-19T03:24:01.707Z,8.20
2022-12-19T03:26:37.496Z,7.28
2022-12-19T03:29:28.522Z,6.38
2022-12-19T03:31:57.713Z,5.70
2022-12-19T03:34:44.172Z,5.55
2022-12-19T03:37:21.231Z,5.55
2022-12-19T03:40:07.782Z,6.13
2022-12-19T03:42:56.766Z,5.70
2022-12-19T03:45:34.038Z,4.82
2022-12-19T03:48:18.951Z,5.35
2022-12-19T03:50:56.276Z,4.82
2022-12-19T03:53:58.134Z,4.35
2022-12-19T03:57:10.792Z,4.32
2022-12-19T03:59:45.727Z,4.10
2022-12-19T04:02:15.855Z,4.80
2022-12-19T04:04:46.478Z,4.30
2022-12-19T04:07:15.250Z,3.60
2022-12-19T04:09:45.159Z,3.40
2022-12-19T04:12:18.380Z,4.35
2022-12-19T04:14:46.009Z,4.80
2022-12-19T04:17:48.592Z,4.55
2022-12-19T04:20:22.360Z,4.40
2022-12-19T04:23:02.375Z,4.63
2022-12-19T04:25:52.741Z,4.30
2022-12-19T04:28:27.349Z,4.60
2022-12-19T04:30:54.812Z,4.18
2022-12-19T04:33:21.649Z,4.55
2022-12-19T04:35:49.182Z,4.05
2022-12-19T04:38:16.017Z,4.15
2022-12-19T04:40:42.804Z,3.85
2022-12-19T04:43:09.809Z,3.45
2022-12-19T04:45:36.904Z,3.70
2022-12-19T04:48:04.419Z,3.92
2022-12-19T04:50:34.198Z,3.30
2022-12-19T04:53:01.705Z,3.92
2022-12-19T04:55:28.594Z,3.40
2022-12-19T04:57:55.635Z,3.22
2022-12-19T05:00:22.475Z,3.35
2022-12-19T05:02:49.512Z,3.65
2022-12-19T05:05:18.448Z,3.25
2022-12-19T05:07:45.286Z,3.88
2022-12-19T05:10:12.110Z,4.07
2022-12-19T05:12:38.920Z,3.80
2022-12-19T05:15:06.656Z,3.50
2022-12-19T05:17:33.651Z,3.60
2022-12-19T05:20:00.459Z,4.32
2022-12-19T05:22:27.417Z,4.18
2022-12-19T05:24:54.385Z,3.47
2022-12-19T05:27:21.319Z,4.20
2022-12-19T05:29:48.089Z,4.47
2022-12-19T05:32:15.133Z,4.70
2022-12-19T05:34:41.919Z,4.60
2022-12-19T05:37:08.669Z,5.50
2022-12-19T05:39:35.643Z,5.32
2022-12-19T05:42:02.472Z,6.07
2022-12-19T05:44:29.281Z,6.18
2022-12-19T05:46:56.158Z,5.88
2022-12-19T05:49:22.999Z,6.35
2022-12-19T05:51:51.585Z,6.00
2022-12-19T05:54:18.565Z,6.70
2022-12-19T05:56:45.373Z,6.68
2022-12-19T05:59:12.592Z,7.30
2022-12-19T06:01:39.733Z,6.53
2022-12-19T06:04:08.279Z,7.30
2022-12-19T06:06:35.112Z,7.28
2022-12-19T06:09:03.131Z,5.80
2022-12-19T06:11:30.004Z,6.30
2022-12-19T06:13:56.929Z,5.47
2022-12-19T06:16:24.613Z,5.18
2022-12-19T06:18:54.433Z,5.65
2022-12-19T06:21:23.623Z,4.70
2022-12-19T06:23:51.302Z,4.35
2022-12-19T06:26:20.686Z,3.80
2022-12-19T06:28:49.502Z,3.28
2022-12-19T06:31:17.324Z,3.30
2022-12-19T06:33:44.564Z,3.60
2022-12-19T06:36:23.311Z,3.33
2022-12-19T06:38:51.369Z,3.58
2022-12-19T06:41:38.135Z,3.00
2022-12-19T06:44:09.423Z,3.20
2022-12-19T06:46:37.950Z,3.28
2022-12-19T06:49:05.750Z,3.15
2022-12-19T06:51:32.972Z,3.67
2022-12-19T06:54:00.049Z,4.03
2022-12-19T06:56:27.280Z,3.70
2022-12-19T06:58:54.476Z,3.75
2022-12-19T07:01:49.739Z,3.50
2022-12-19T07:04:25.546Z,3.92
2022-12-19T07:06:52.374Z,3.65
2022-12-19T07:09:19.155Z,3.13
2022-12-19T07:11:45.972Z,3.30
2022-12-19T07:14:13.093Z,3.10
2022-12-19T07:16:41.555Z,3.05
2022-12-19T07:19:09.128Z,3.70
2022-12-19T07:21:36.936Z,3.70
2022-12-19T07:24:05.009Z,3.38
2022-12-19T07:26:32.837Z,3.30
2022-12-19T07:29:00.704Z,3.80
2022-12-19T07:31:27.780Z,3.75
2022-12-19T07:33:54.652Z,3.60
2022-12-19T07:36:21.441Z,3.70
2022-12-19T07:38:48.506Z,4.00
2022-12-19T07:41:15.307Z,3.30
2022-12-19T07:43:42.216Z,3.35
2022-12-19T07:46:09.258Z,3.30
2022-12-19T07:48:36.057Z,3.35
2022-12-19T07:51:05.519Z,3.08
2022-12-19T07:53:32.759Z,3.13
2022-12-19T07:55:59.867Z,3.20
2022-12-19T07:58:26.667Z,2.63
2022-12-19T08:01:01.033Z,2.85
2022-12-19T08:03:28.805Z,2.40
2022-12-19T08:06:06.775Z,2.38
2022-12-19T08:08:34.660Z,2.90
2022-12-19T08:11:17.634Z,2.70
2022-12-19T08:13:46.918Z,2.58
2022-12-19T08:16:15.424Z,1.98
2022-12-19T08:18:42.383Z,2.03
2022-12-19T08:21:10.809Z,2.30
2022-12-19T08:23:40.743Z,2.78
2022-12-19T08:26:12.649Z,2.45
2022-12-19T08:28:40.479Z,2.67
2022-12-19T08:31:09.963Z,2.47
2022-12-19T08:33:37.739Z,2.40
2022-12-19T08:36:12.014Z,2.97
2022-12-19T08:38:42.692Z,2.70
2022-12-19T08:41:09.917Z,2.88
2022-12-19T08:43:36.841Z,2.40
2022-12-19T08:46:04.308Z,2.72
2022-12-19T08:48:35.717Z,2.28
2022-12-19T08:51:07.031Z,3.65
2022-12-19T08:53:38.134Z,2.40
2022-12-19T08:56:19.935Z,2.63
2022-12-19T08:58:46.828Z,2.70
2022-12-19T09:01:19.284Z,2.25
2022-12-19T09:04:36.480Z,2.40
2022-12-19T09:06:34.352Z,2.15
2022-12-19T09:09:01.266Z,2.72
2022-12-19T09:11:28.221Z,2.47
2022-12-19T09:13:57.552Z,2.25
2022-12-19T09:16:27.568Z,2.17
2022-12-19T09:18:58.973Z,2.28
2022-12-19T09:21:32.100Z,2.40
2022-12-19T09:24:07.444Z,2.33
2022-12-19T09:26:38.329Z,2.10
2022-12-19T09:29:19.705Z,3.10
2022-12-19T09:31:51.457Z,2.75
2022-12-19T09:34:37.668Z,2.70
2022-12-19T09:37:16.075Z,2.75
2022-12-19T09:39:45.669Z,2.97
2022-12-19T09:42:30.721Z,3.55
2022-12-19T09:45:31.799Z,3.33
2022-12-19T09:48:00.935Z,4.05
2022-12-19T09:50:48.735Z,3.60
2022-12-19T09:53:45.193Z,3.85
2022-12-19T09:56:24.227Z,3.88
2022-12-19T09:58:58.897Z,4.65
2022-12-19T10:01:37.806Z,4.47
2022-12-19T10:04:18.499Z,3.53
2022-12-19T10:07:20.388Z,4.30
2022-12-19T10:11:59.380Z,4.30
2022-12-19T10:12:59.645Z,4.22
2022-12-19T10:15:59.973Z,3.70
2022-12-19T10:18:54.449Z,3.72
2022-12-19T10:25:22.942Z,3.47
2022-12-19T10:28:18.763Z,3.20
2022-12-19T10:34:09.273Z,3.05
2022-12-19T10:39:53.809Z,2.42
2022-12-19T10:43:07.464Z,2.08
2022-12-19T10:45:48.792Z,2.28
2022-12-19T10:48:24.295Z,2.65
2022-12-19T10:50:57.310Z,2.10
2022-12-19T10:53:29.751Z,2.47
2022-12-19T10:56:03.210Z,2.45
2022-12-19T10:58:36.973Z,1.90
2022-12-19T11:01:22.661Z,2.42
2022-12-19T11:04:10.329Z,2.40
2022-12-19T11:06:48.027Z,1.77
2022-12-19T11:09:46.037Z,1.92
2022-12-19T11:15:59.971Z,2.28
2022-12-19T11:19:50.807Z,2.05
2022-12-19T11:28:14.544Z,1.65
2022-12-19T11:29:31.405Z,2.17
2022-12-19T11:29:44.648Z,1.75
2022-12-19T11:29:54.650Z,1.80
2022-12-19T11:32:44.970Z,2.05
2022-12-19T11:35:24.454Z,1.77
2022-12-19T11:38:06.858Z,2.20
2022-12-19T11:40:48.732Z,2.25
2022-12-19T11:43:44.559Z,3.13
2022-12-19T11:46:49.564Z,2.53
2022-12-19T11:50:01.853Z,2.30
2022-12-19T11:53:19.132Z,2.28
2022-12-19T11:56:04.104Z,2.10
2022-12-19T11:58:34.637Z,2.28
2022-12-19T12:01:40.210Z,2.08
2022-12-19T12:04:38.344Z,2.50
2022-12-19T12:07:15.497Z,2.00
2022-12-19T12:15:48.036Z,2.45
2022-12-19T12:21:38.652Z,2.30
2022-12-19T12:24:49.653Z,2.22
2022-12-19T12:31:00.204Z,2.10
2022-12-19T12:31:42.134Z,2.05
2022-12-19T12:31:47.725Z,2.20
2022-12-19T12:31:57.251Z,1.95
2022-12-19T12:37:08.232Z,2.42
2022-12-19T12:38:23.949Z,2.28
2022-12-19T12:41:08.423Z,2.13
2022-12-19T12:43:50.446Z,2.33
2022-12-19T12:46:26.610Z,1.95
2022-12-19T12:49:18.132Z,2.13
2022-12-19T12:51:46.516Z,2.08
2022-12-19T12:54:15.666Z,1.98
2022-12-19T12:56:44.945Z,2.30
2022-12-19T12:59:28.866Z,1.92
2022-12-19T13:02:08.307Z,2.10
2022-12-19T13:04:44.569Z,1.63
2022-12-19T13:07:20.264Z,2.15
2022-12-19T13:10:06.588Z,1.90
2022-12-19T13:12:51.916Z,2.15
2022-12-19T13:15:27.910Z,2.00
2022-12-19T13:17:54.732Z,2.40
2022-12-19T13:20:25.976Z,2.80
2022-12-19T13:23:00.202Z,2.42
2022-12-19T13:25:27.003Z,2.45
2022-12-19T13:28:02.728Z,2.67
2022-12-19T13:30:32.464Z,2.63
2022-12-19T13:33:19.099Z,2.60
2022-12-19T13:39:47.010Z,2.47
2022-12-19T13:40:01.585Z,2.75
2022-12-19T13:42:01.620Z,2.35
2022-12-19T13:44:29.595Z,2.60
2022-12-19T13:46:56.716Z,2.60
2022-12-19T13:49:34.275Z,2.55
2022-12-19T13:52:05.145Z,2.80
2022-12-19T13:54:45.122Z,3.25
2022-12-19T13:57:27.249Z,2.78
2022-12-19T14:00:02.828Z,3.00
2022-12-19T14:02:43.639Z,2.33
2022-12-19T14:06:18.497Z,2.45
2022-12-19T14:08:25.573Z,2.35
2022-12-19T14:11:41.513Z,2.75
2022-12-19T14:14:37.836Z,2.85
2022-12-19T14:17:23.028Z,3.78
2022-12-19T14:19:53.322Z,2.65
2022-12-19T14:22:40.091Z,2.80
2022-12-19T14:28:20.605Z,2.45
2022-12-19T14:28:26.940Z,2.80
2022-12-19T14:31:04.667Z,3.22
2022-12-19T14:34:04.119Z,2.55
2022-12-19T14:36:33.668Z,2.63
2022-12-19T14:39:24.148Z,2.67
2022-12-19T14:42:10.179Z,2.65
2022-12-19T14:53:51.488Z,2.85
2022-12-19T14:54:01.798Z,3.23
2022-12-19T14:54:18.686Z,2.97
2022-12-19T14:54:27.386Z,3.50
2022-12-19T14:56:40.682Z,2.72
2022-12-19T14:59:05.463Z,3.08
2022-12-19T15:01:34.491Z,3.97
2022-12-19T15:04:52.575Z,3.10
2022-12-19T15:07:20.968Z,2.97
2022-12-19T15:11:05.551Z,3.08
2022-12-19T15:14:52.405Z,3.03
2022-12-19T15:16:24.929Z,3.53
2022-12-19T15:18:59.287Z,3.10
2022-12-19T15:21:28.031Z,3.23
2022-12-19T15:23:55.168Z,3.53
2022-12-19T15:26:48.349Z,3.50
2022-12-19T15:29:19.886Z,3.50
2022-12-19T15:31:48.848Z,3.08
2022-12-19T15:34:40.073Z,3.08
2022-12-19T15:37:13.958Z,3.25
2022-12-19T15:39:41.884Z,3.05
2022-12-19T15:42:21.564Z,2.88
2022-12-19T15:44:49.862Z,2.80
2022-12-19T15:47:29.890Z,2.83
2022-12-19T15:49:58.412Z,2.55
2022-12-19T15:52:25.791Z,3.10
2022-12-19T15:54:52.655Z,2.60
2022-12-19T15:57:36.362Z,2.90
2022-12-19T16:00:27.955Z,2.83
2022-12-19T16:03:23.593Z,2.90
2022-12-19T16:05:43.478Z,2.90
2022-12-19T16:08:19.139Z,2.60
2022-12-19T16:10:56.025Z,2.92
2022-12-19T16:13:31.602Z,2.88
2022-12-19T16:15:59.226Z,2.70
2022-12-19T16:18:26.430Z,2.33
2022-12-19T16:20:53.652Z,2.90
2022-12-19T16:23:22.486Z,2.40
2022-12-19T16:25:50.972Z,2.40
2022-12-19T16:28:29.386Z,2.40
2022-12-19T16:30:58.230Z,3.25
2022-12-19T16:33:30.788Z,2.20
2022-12-19T16:36:06.952Z,2.47
2022-12-19T16:38:35.505Z,3.03
2022-12-19T16:41:02.808Z,3.20
2022-12-19T16:43:35.481Z,2.47
2022-12-19T16:46:06.511Z,2.60
2022-12-19T16:48:36.062Z,2.78
2022-12-19T16:51:03.338Z,2.55
2022-12-19T16:53:30.181Z,2.70
2022-12-19T16:55:57.643Z,2.90
2022-12-19T16:58:27.930Z,2.70
2022-12-19T17:00:55.889Z,2.17
2022-12-19T17:03:52.322Z,2.78
2022-12-19T17:06:21.423Z,2.85
2022-12-19T17:08:49.536Z,2.35
2022-12-19T17:11:23.733Z,3.30
2022-12-19T17:14:17.242Z,3.00
2022-12-19T17:16:45.081Z,2.47
2022-12-19T17:19:21.796Z,2.63
2022-12-19T17:21:49.921Z,2.63
2022-12-19T17:24:17.642Z,2.30
2022-12-19T17:26:46.861Z,3.10
2022-12-19T17:29:14.256Z,2.72
2022-12-19T17:31:42.218Z,2.50
2022-12-19T17:34:32.498Z,2.50
2022-12-19T17:37:01.606Z,2.55
2022-12-19T17:39:31.222Z,2.40
2022-12-19T17:42:20.442Z,2.08
2022-12-19T17:44:47.465Z,2.58
2022-12-19T17:47:19.845Z,2.22
2022-12-19T17:49:48.713Z,2.60
2022-12-19T17:52:18.827Z,2.72
2022-12-19T17:54:46.103Z,3.15
2022-12-19T17:57:18.087Z,3.00
2022-12-19T17:59:46.849Z,2.70
2022-12-19T18:02:24.200Z,2.88
2022-12-19T18:04:52.226Z,3.63
2022-12-19T18:07:19.597Z,3.95
2022-12-19T18:09:46.522Z,4.38
2022-12-19T18:12:14.004Z,3.63
2022-12-19T18:14:40.861Z,3.75
2022-12-19T18:17:12.936Z,3.83
2022-12-19T18:19:40.386Z,3.92
2022-12-19T18:22:13.620Z,3.30
2022-12-19T18:24:40.888Z,3.95
2022-12-19T18:27:07.929Z,2.60
2022-12-19T18:29:34.991Z,2.95
2022-12-19T18:32:01.874Z,2.72
2022-12-19T18:34:31.322Z,2.78
2022-12-19T18:36:58.480Z,3.28
2022-12-19T18:39:29.137Z,3.75
2022-12-19T18:41:55.967Z,3.80
2022-12-19T18:44:23.385Z,4.45
2022-12-19T18:46:52.163Z,3.60
2022-12-19T18:49:19.776Z,3.50
2022-12-19T18:51:47.529Z,3.90
2022-12-19T18:54:18.488Z,5.35
2022-12-19T18:56:46.045Z,5.72
2022-12-19T18:59:12.923Z,5.40
2022-12-19T19:01:44.096Z,3.97
2022-12-19T19:04:13.336Z,4.53
2022-12-19T19:06:46.643Z,4.30
2022-12-19T19:09:18.441Z,4.25
2022-12-19T19:11:45.286Z,3.83
2022-12-19T19:14:12.218Z,4.70
2022-12-19T19:16:40.159Z,4.38
2022-12-19T19:19:11.074Z,4.78
2022-12-19T19:21:39.005Z,4.85
2022-12-19T19:24:08.564Z,3.95
2022-12-19T19:26:35.587Z,3.63
2022-12-19T19:29:04.150Z,3.85
2022-12-19T19:31:37.450Z,3.80
2022-12-19T19:34:12.978Z,4.15
2022-12-19T19:36:46.077Z,4.55
2022-12-19T19:39:14.139Z,4.70
2022-12-19T19:41:41.061Z,6.40
2022-12-19T19:44:08.057Z,6.03
2022-12-19T19:46:34.903Z,5.88
2022-12-19T19:49:02.115Z,6.03
2022-12-19T19:51:29.214Z,5.32
2022-12-19T19:53:56.547Z,7.13
2022-12-19T19:56:23.484Z,6.65
2022-12-19T19:58:50.330Z,6.28
2022-12-19T20:01:17.269Z,5.53
2022-12-19T20:03:45.232Z,4.80
2022-12-19T20:06:12.779Z,8.13
2022-12-19T20:08:40.829Z,6.15
2022-12-19T20:11:10.843Z,6.40
2022-12-19T20:13:38.499Z,6.65
2022-12-19T20:16:09.791Z,6.90
2022-12-19T20:18:38.593Z,5.97
2022-12-19T20:21:13.031Z,6.38
2022-12-19T20:26:08.639Z,6.40
2022-12-19T20:28:35.998Z,5.03
2022-12-19T20:31:03.327Z,5.63
2022-12-19T20:33:30.285Z,5.43
2022-12-19T20:35:58.746Z,5.38
2022-12-19T20:38:25.748Z,6.47
2022-12-19T20:40:56.005Z,5.60
2022-12-19T20:43:24.159Z,5.13
2022-12-19T20:45:51.840Z,5.22
2022-12-19T20:48:18.788Z,5.10
2022-12-19T20:50:46.178Z,5.72
2022-12-19T20:53:13.456Z,5.03
2022-12-19T20:55:40.245Z,5.00
2022-12-19T20:58:07.284Z,5.05
2022-12-19T21:00:34.149Z,4.50
2022-12-19T21:03:30.497Z,4.20
2022-12-19T21:05:57.024Z,4.38
2022-12-19T21:08:25.392Z,4.45
2022-12-19T21:10:52.994Z,7.43
2022-12-19T21:13:21.644Z,5.53
2022-12-19T21:16:03.296Z,6.18
2022-12-19T21:18:31.247Z,6.43
2022-12-19T21:20:58.918Z,6.15
2022-12-19T21:23:26.248Z,6.13
2022-12-19T21:25:57.373Z,4.78
2022-12-19T21:28:24.778Z,5.97
2022-12-19T21:31:07.045Z,5.50
2022-12-19T21:33:34.618Z,10.02
2022-12-19T21:36:20.621Z,4.90
2022-12-19T21:38:56.094Z,3.55
2022-12-19T21:41:23.384Z,3.38
2022-12-19T21:43:55.443Z,3.35
2022-12-19T21:46:31.239Z,3.13
2022-12-19T21:48:58.189Z,3.85
2022-12-19T21:51:31.961Z,2.63
2022-12-19T21:54:02.019Z,2.90
2022-12-19T21:56:39.230Z,2.47
2022-12-19T21:59:16.025Z,3.13
2022-12-19T22:01:44.267Z,3.38
2022-12-19T22:04:21.016Z,3.10
2022-12-19T22:06:50.485Z,2.42
2022-12-19T22:09:21.441Z,3.00
2022-12-19T22:11:49.016Z,3.28
2022-12-19T22:14:17.152Z,3.17
2022-12-19T22:16:44.784Z,4.43
2022-12-19T22:19:16.572Z,3.63
2022-12-19T22:21:45.378Z,4.30
2022-12-19T22:24:15.491Z,3.85
2022-12-19T22:26:42.946Z,4.85
2022-12-19T22:29:14.967Z,7.35
2022-12-19T22:31:42.562Z,9.65
2022-12-19T22:34:19.671Z,9.70
2022-12-19T22:36:48.005Z,9.90
2022-12-19T22:39:19.695Z,10.38
2022-12-19T22:41:47.271Z,11.60
2022-12-19T22:44:19.756Z,12.98
2022-12-19T22:46:46.870Z,10.82
2022-12-19T22:49:14.261Z,10.55
2022-12-19T22:51:41.588Z,10.07
2022-12-19T22:54:09.173Z,10.38
2022-12-19T22:56:36.897Z,9.25
2022-12-19T22:59:10.263Z,8.82
2022-12-19T23:01:40.946Z,10.05
2022-12-19T23:04:11.722Z,10.82
2022-12-19T23:06:39.214Z,10.57
2022-12-19T23:09:09.327Z,11.60
2022-12-19T23:11:39.581Z,10.38
2022-12-19T23:14:09.062Z,10.05
2022-12-19T23:16:35.971Z,10.80
2022-12-19T23:19:02.915Z,10.13
2022-12-19T23:21:30.256Z,8.57
2022-12-19T23:23:57.199Z,10.10
2022-12-19T23:26:28.811Z,11.05
2022-12-19T23:29:01.787Z,7.03
2022-12-19T23:31:30.426Z,6.85
2022-12-19T23:33:58.361Z,4.30
2022-12-19T23:37:00.596Z,3.80
2022-12-19T23:39:13.054Z,2.50
2022-12-19T23:41:40.728Z,1.90
2022-12-19T23:44:09.055Z,1.60
2022-12-19T23:46:36.657Z,1.13
2022-12-19T23:49:04.089Z,0.95
2022-12-19T23:51:30.948Z,0.80
2022-12-19T23:53:57.821Z,0.50
2022-12-19T23:56:28.775Z,0.50
2022-12-19T23:58:56.162Z,0.50
